sensor_id;sensor_type;location;lat;lon;timestamp;P1;durP1;ratioP1;P2;durP2;ratioP2
21087;SDS011;10702;51.516;9.944;2023-02-24T00:01:57;15.03;;;5.83;;
21087;SDS011;10702;51.516;9.944;2023-02-24T00:04:30;17.13;;;6.20;;
21087;SDS011;10702;51.516;9.944;2023-02-24T00:06:58;14.23;;;5.90;;
21087;SDS011;10702;51.516;9.944;2023-02-24T00:09:26;15.97;;;6.23;;
21087;SDS011;10702;51.516;9.944;2023-02-24T00:11:56;18.93;;;6.83;;
21087;SDS011;10702;51.516;9.944;2023-02-24T00:14:26;19.33;;;6.70;;
21087;SDS011;10702;51.516;9.944;2023-02-24T00:16:55;19.37;;;6.20;;
21087;SDS011;10702;51.516;9.944;2023-02-24T00:19:24;15.80;;;5.93;;
21087;SDS011;10702;51.516;9.944;2023-02-24T00:21:52;13.63;;;5.30;;
21087;SDS011;10702;51.516;9.944;2023-02-24T00:24:20;14.60;;;5.87;;
21087;SDS011;10702;51.516;9.944;2023-02-24T00:26:50;15.13;;;5.83;;
21087;SDS011;10702;51.516;9.944;2023-02-24T00:29:19;18.87;;;6.03;;
21087;SDS011;10702;51.516;9.944;2023-02-24T00:31:49;17.07;;;6.57;;
21087;SDS011;10702;51.516;9.944;2023-02-24T00:34:22;17.97;;;6.43;;
21087;SDS011;10702;51.516;9.944;2023-02-24T00:36:49;18.10;;;6.30;;
21087;SDS011;10702;51.516;9.944;2023-02-24T00:39:17;22.93;;;7.50;;
21087;SDS011;10702;51.516;9.944;2023-02-24T00:41:56;20.00;;;6.00;;
21087;SDS011;10702;51.516;9.944;2023-02-24T00:44:30;20.10;;;7.73;;
21087;SDS011;10702;51.516;9.944;2023-02-24T00:47:00;22.77;;;7.00;;
21087;SDS011;10702;51.516;9.944;2023-02-24T00:49:28;19.23;;;6.77;;
21087;SDS011;10702;51.516;9.944;2023-02-24T00:51:56;22.33;;;6.73;;
21087;SDS011;10702;51.516;9.944;2023-02-24T00:54:24;22.27;;;7.10;;
21087;SDS011;10702;51.516;9.944;2023-02-24T00:56:54;19.10;;;6.47;;
21087;SDS011;10702;51.516;9.944;2023-02-24T00:59:21;21.93;;;6.53;;
21087;SDS011;10702;51.516;9.944;2023-02-24T01:01:49;19.50;;;6.37;;
21087;SDS011;10702;51.516;9.944;2023-02-24T01:04:21;18.03;;;6.37;;
21087;SDS011;10702;51.516;9.944;2023-02-24T01:06:50;19.10;;;7.27;;
21087;SDS011;10702;51.516;9.944;2023-02-24T01:09:18;21.53;;;6.73;;
21087;SDS011;10702;51.516;9.944;2023-02-24T01:11:48;19.97;;;6.50;;
21087;SDS011;10702;51.516;9.944;2023-02-24T01:14:44;20.97;;;7.43;;
21087;SDS011;10702;51.516;9.944;2023-02-24T01:17:13;23.40;;;6.80;;
21087;SDS011;10702;51.516;9.944;2023-02-24T01:19:42;17.03;;;6.27;;
21087;SDS011;10702;51.516;9.944;2023-02-24T01:22:10;22.10;;;6.10;;
21087;SDS011;10702;51.516;9.944;2023-02-24T01:24:40;23.13;;;7.00;;
21087;SDS011;10702;51.516;9.944;2023-02-24T01:27:09;17.90;;;5.77;;
21087;SDS011;10702;51.516;9.944;2023-02-24T01:29:37;24.63;;;6.23;;
21087;SDS011;10702;51.516;9.944;2023-02-24T01:32:05;15.83;;;6.40;;
21087;SDS011;10702;51.516;9.944;2023-02-24T01:34:33;22.97;;;6.47;;
21087;SDS011;10702;51.516;9.944;2023-02-24T01:37:01;21.83;;;7.10;;
21087;SDS011;10702;51.516;9.944;2023-02-24T01:39:29;26.93;;;6.90;;
21087;SDS011;10702;51.516;9.944;2023-02-24T01:41:57;25.67;;;6.70;;
21087;SDS011;10702;51.516;9.944;2023-02-24T01:47:13;21.57;;;5.87;;
21087;SDS011;10702;51.516;9.944;2023-02-24T01:49:42;21.40;;;5.80;;
21087;SDS011;10702;51.516;9.944;2023-02-24T01:52:14;14.50;;;5.23;;
21087;SDS011;10702;51.516;9.944;2023-02-24T01:54:45;19.33;;;5.90;;
21087;SDS011;10702;51.516;9.944;2023-02-24T01:57:14;22.50;;;5.70;;
21087;SDS011;10702;51.516;9.944;2023-02-24T01:59:45;19.80;;;5.80;;
21087;SDS011;10702;51.516;9.944;2023-02-24T02:02:13;22.30;;;5.53;;
21087;SDS011;10702;51.516;9.944;2023-02-24T02:04:43;18.37;;;5.30;;
21087;SDS011;10702;51.516;9.944;2023-02-24T02:07:11;18.73;;;5.93;;
21087;SDS011;10702;51.516;9.944;2023-02-24T02:09:42;15.83;;;4.90;;
21087;SDS011;10702;51.516;9.944;2023-02-24T02:12:10;16.77;;;5.67;;
21087;SDS011;10702;51.516;9.944;2023-02-24T02:14:39;17.87;;;5.40;;
21087;SDS011;10702;51.516;9.944;2023-02-24T02:17:10;20.73;;;6.30;;
21087;SDS011;10702;51.516;9.944;2023-02-24T02:19:49;12.87;;;4.90;;
21087;SDS011;10702;51.516;9.944;2023-02-24T02:22:32;18.80;;;4.90;;
21087;SDS011;10702;51.516;9.944;2023-02-24T02:25:07;21.97;;;5.90;;
21087;SDS011;10702;51.516;9.944;2023-02-24T02:27:45;19.00;;;5.03;;
21087;SDS011;10702;51.516;9.944;2023-02-24T02:33:16;16.93;;;6.03;;
21087;SDS011;10702;51.516;9.944;2023-02-24T02:35:55;12.40;;;5.23;;
21087;SDS011;10702;51.516;9.944;2023-02-24T02:38:26;18.67;;;5.40;;
21087;SDS011;10702;51.516;9.944;2023-02-24T02:41:02;18.37;;;5.27;;
21087;SDS011;10702;51.516;9.944;2023-02-24T02:43:36;18.10;;;5.60;;
21087;SDS011;10702;51.516;9.944;2023-02-24T02:46:05;19.80;;;5.10;;
21087;SDS011;10702;51.516;9.944;2023-02-24T02:48:35;14.03;;;4.93;;
21087;SDS011;10702;51.516;9.944;2023-02-24T02:51:08;13.30;;;4.40;;
21087;SDS011;10702;51.516;9.944;2023-02-24T02:53:37;12.97;;;3.90;;
21087;SDS011;10702;51.516;9.944;2023-02-24T02:56:09;12.63;;;3.73;;
21087;SDS011;10702;51.516;9.944;2023-02-24T02:58:38;8.77;;;3.77;;
21087;SDS011;10702;51.516;9.944;2023-02-24T03:01:07;12.80;;;4.10;;
21087;SDS011;10702;51.516;9.944;2023-02-24T03:03:36;16.20;;;3.30;;
21087;SDS011;10702;51.516;9.944;2023-02-24T03:06:05;17.27;;;3.40;;
21087;SDS011;10702;51.516;9.944;2023-02-24T03:08:35;16.63;;;4.63;;
21087;SDS011;10702;51.516;9.944;2023-02-24T03:11:06;11.77;;;3.57;;
21087;SDS011;10702;51.516;9.944;2023-02-24T03:13:36;11.40;;;3.70;;
21087;SDS011;10702;51.516;9.944;2023-02-24T03:16:06;13.80;;;4.33;;
21087;SDS011;10702;51.516;9.944;2023-02-24T03:18:35;15.20;;;4.20;;
21087;SDS011;10702;51.516;9.944;2023-02-24T03:21:05;13.27;;;3.77;;
21087;SDS011;10702;51.516;9.944;2023-02-24T03:23:34;12.53;;;3.50;;
21087;SDS011;10702;51.516;9.944;2023-02-24T03:26:05;13.77;;;3.77;;
21087;SDS011;10702;51.516;9.944;2023-02-24T03:28:33;9.47;;;3.63;;
21087;SDS011;10702;51.516;9.944;2023-02-24T03:31:04;12.07;;;4.20;;
21087;SDS011;10702;51.516;9.944;2023-02-24T03:33:37;11.67;;;3.97;;
21087;SDS011;10702;51.516;9.944;2023-02-24T03:36:06;17.47;;;4.07;;
21087;SDS011;10702;51.516;9.944;2023-02-24T03:38:34;17.10;;;4.10;;
21087;SDS011;10702;51.516;9.944;2023-02-24T03:41:05;16.60;;;4.27;;
21087;SDS011;10702;51.516;9.944;2023-02-24T03:43:37;15.93;;;4.67;;
21087;SDS011;10702;51.516;9.944;2023-02-24T03:46:05;16.17;;;3.60;;
21087;SDS011;10702;51.516;9.944;2023-02-24T03:48:36;13.90;;;4.53;;
21087;SDS011;10702;51.516;9.944;2023-02-24T03:51:04;14.90;;;3.60;;
21087;SDS011;10702;51.516;9.944;2023-02-24T03:53:35;18.90;;;3.97;;
21087;SDS011;10702;51.516;9.944;2023-02-24T03:56:10;16.93;;;3.87;;
21087;SDS011;10702;51.516;9.944;2023-02-24T03:58:46;9.47;;;2.50;;
21087;SDS011;10702;51.516;9.944;2023-02-24T04:01:18;15.70;;;2.70;;
21087;SDS011;10702;51.516;9.944;2023-02-24T04:03:51;10.50;;;2.73;;
21087;SDS011;10702;51.516;9.944;2023-02-24T04:06:26;13.23;;;2.73;;
21087;SDS011;10702;51.516;9.944;2023-02-24T04:08:58;11.07;;;2.87;;
21087;SDS011;10702;51.516;9.944;2023-02-24T04:11:29;12.43;;;3.00;;
21087;SDS011;10702;51.516;9.944;2023-02-24T04:14:03;16.97;;;3.00;;
21087;SDS011;10702;51.516;9.944;2023-02-24T04:16:33;15.93;;;2.73;;
21087;SDS011;10702;51.516;9.944;2023-02-24T04:19:06;14.20;;;2.20;;
21087;SDS011;10702;51.516;9.944;2023-02-24T04:21:35;14.83;;;2.97;;
21087;SDS011;10702;51.516;9.944;2023-02-24T04:24:04;10.77;;;2.27;;
21087;SDS011;10702;51.516;9.944;2023-02-24T04:26:38;13.87;;;2.70;;
21087;SDS011;10702;51.516;9.944;2023-02-24T04:29:06;12.23;;;2.23;;
21087;SDS011;10702;51.516;9.944;2023-02-24T04:31:34;11.13;;;2.80;;
21087;SDS011;10702;51.516;9.944;2023-02-24T04:34:04;12.33;;;2.37;;
21087;SDS011;10702;51.516;9.944;2023-02-24T04:36:34;11.23;;;2.40;;
21087;SDS011;10702;51.516;9.944;2023-02-24T04:39:03;11.83;;;2.60;;
21087;SDS011;10702;51.516;9.944;2023-02-24T04:41:33;16.33;;;3.60;;
21087;SDS011;10702;51.516;9.944;2023-02-24T04:44:02;13.67;;;2.87;;
21087;SDS011;10702;51.516;9.944;2023-02-24T04:46:30;15.10;;;2.87;;
21087;SDS011;10702;51.516;9.944;2023-02-24T04:48:58;12.73;;;2.70;;
21087;SDS011;10702;51.516;9.944;2023-02-24T04:51:27;11.87;;;2.70;;
21087;SDS011;10702;51.516;9.944;2023-02-24T04:53:56;12.03;;;2.60;;
21087;SDS011;10702;51.516;9.944;2023-02-24T04:56:24;12.90;;;2.80;;
21087;SDS011;10702;51.516;9.944;2023-02-24T04:58:54;11.80;;;2.73;;
21087;SDS011;10702;51.516;9.944;2023-02-24T05:01:23;12.10;;;2.50;;
21087;SDS011;10702;51.516;9.944;2023-02-24T05:03:50;15.73;;;2.63;;
21087;SDS011;10702;51.516;9.944;2023-02-24T05:06:18;20.20;;;2.87;;
21087;SDS011;10702;51.516;9.944;2023-02-24T05:08:45;15.00;;;2.90;;
21087;SDS011;10702;51.516;9.944;2023-02-24T05:11:13;11.53;;;2.80;;
21087;SDS011;10702;51.516;9.944;2023-02-24T05:13:43;16.80;;;2.83;;
21087;SDS011;10702;51.516;9.944;2023-02-24T05:16:14;8.43;;;2.50;;
21087;SDS011;10702;51.516;9.944;2023-02-24T05:18:43;12.13;;;3.10;;
21087;SDS011;10702;51.516;9.944;2023-02-24T05:21:12;18.17;;;3.53;;
21087;SDS011;10702;51.516;9.944;2023-02-24T05:23:57;13.73;;;2.83;;
21087;SDS011;10702;51.516;9.944;2023-02-24T05:26:29;11.80;;;2.20;;
21087;SDS011;10702;51.516;9.944;2023-02-24T05:28:57;14.90;;;2.60;;
21087;SDS011;10702;51.516;9.944;2023-02-24T05:31:27;13.87;;;2.50;;
21087;SDS011;10702;51.516;9.944;2023-02-24T05:33:58;17.33;;;2.80;;
21087;SDS011;10702;51.516;9.944;2023-02-24T05:36:27;17.97;;;3.10;;
21087;SDS011;10702;51.516;9.944;2023-02-24T05:38:55;16.20;;;3.10;;
21087;SDS011;10702;51.516;9.944;2023-02-24T05:41:25;11.57;;;2.63;;
21087;SDS011;10702;51.516;9.944;2023-02-24T05:43:58;16.13;;;3.40;;
21087;SDS011;10702;51.516;9.944;2023-02-24T05:46:30;13.43;;;3.10;;
21087;SDS011;10702;51.516;9.944;2023-02-24T05:49:00;16.67;;;3.40;;
21087;SDS011;10702;51.516;9.944;2023-02-24T05:51:29;15.40;;;3.20;;
21087;SDS011;10702;51.516;9.944;2023-02-24T05:54:00;17.70;;;4.03;;
21087;SDS011;10702;51.516;9.944;2023-02-24T05:56:30;15.53;;;3.30;;
21087;SDS011;10702;51.516;9.944;2023-02-24T05:58:58;15.93;;;4.37;;
21087;SDS011;10702;51.516;9.944;2023-02-24T06:01:28;15.93;;;3.80;;
21087;SDS011;10702;51.516;9.944;2023-02-24T06:03:58;23.03;;;4.20;;
21087;SDS011;10702;51.516;9.944;2023-02-24T06:06:36;16.63;;;3.60;;
21087;SDS011;10702;51.516;9.944;2023-02-24T06:09:04;16.93;;;3.10;;
21087;SDS011;10702;51.516;9.944;2023-02-24T06:11:36;21.40;;;3.77;;
21087;SDS011;10702;51.516;9.944;2023-02-24T06:14:04;15.73;;;3.63;;
21087;SDS011;10702;51.516;9.944;2023-02-24T06:16:32;18.07;;;3.70;;
21087;SDS011;10702;51.516;9.944;2023-02-24T06:19:00;17.87;;;4.30;;
21087;SDS011;10702;51.516;9.944;2023-02-24T06:21:27;16.90;;;3.67;;
21087;SDS011;10702;51.516;9.944;2023-02-24T06:23:56;16.90;;;3.90;;
21087;SDS011;10702;51.516;9.944;2023-02-24T06:26:24;16.37;;;3.60;;
21087;SDS011;10702;51.516;9.944;2023-02-24T06:28:55;18.20;;;4.00;;
21087;SDS011;10702;51.516;9.944;2023-02-24T06:31:23;14.50;;;3.90;;
21087;SDS011;10702;51.516;9.944;2023-02-24T06:33:51;24.73;;;3.80;;
21087;SDS011;10702;51.516;9.944;2023-02-24T06:36:19;13.37;;;2.93;;
21087;SDS011;10702;51.516;9.944;2023-02-24T06:38:47;13.43;;;3.27;;
21087;SDS011;10702;51.516;9.944;2023-02-24T06:41:16;13.17;;;3.47;;
21087;SDS011;10702;51.516;9.944;2023-02-24T06:43:45;14.13;;;3.77;;
21087;SDS011;10702;51.516;9.944;2023-02-24T06:46:14;11.23;;;2.93;;
21087;SDS011;10702;51.516;9.944;2023-02-24T06:48:43;14.77;;;3.50;;
21087;SDS011;10702;51.516;9.944;2023-02-24T06:51:14;16.60;;;3.97;;
21087;SDS011;10702;51.516;9.944;2023-02-24T06:53:42;14.73;;;3.63;;
21087;SDS011;10702;51.516;9.944;2023-02-24T06:56:10;18.00;;;3.70;;
21087;SDS011;10702;51.516;9.944;2023-02-24T06:58:42;13.90;;;3.27;;
21087;SDS011;10702;51.516;9.944;2023-02-24T07:01:10;11.77;;;3.27;;
21087;SDS011;10702;51.516;9.944;2023-02-24T07:03:39;9.97;;;3.23;;
21087;SDS011;10702;51.516;9.944;2023-02-24T07:06:12;18.20;;;3.70;;
21087;SDS011;10702;51.516;9.944;2023-02-24T07:08:51;17.50;;;3.33;;
21087;SDS011;10702;51.516;9.944;2023-02-24T07:11:19;15.70;;;3.50;;
21087;SDS011;10702;51.516;9.944;2023-02-24T07:13:49;13.70;;;3.00;;
21087;SDS011;10702;51.516;9.944;2023-02-24T07:16:20;13.80;;;3.00;;
21087;SDS011;10702;51.516;9.944;2023-02-24T07:18:52;11.27;;;3.00;;
21087;SDS011;10702;51.516;9.944;2023-02-24T07:21:22;15.43;;;3.80;;
21087;SDS011;10702;51.516;9.944;2023-02-24T07:23:50;12.63;;;3.30;;
21087;SDS011;10702;51.516;9.944;2023-02-24T07:26:25;13.63;;;3.70;;
21087;SDS011;10702;51.516;9.944;2023-02-24T07:28:54;10.67;;;2.97;;
21087;SDS011;10702;51.516;9.944;2023-02-24T07:31:22;9.07;;;2.63;;
21087;SDS011;10702;51.516;9.944;2023-02-24T07:33:52;22.30;;;4.17;;
21087;SDS011;10702;51.516;9.944;2023-02-24T07:36:20;19.37;;;3.00;;
21087;SDS011;10702;51.516;9.944;2023-02-24T07:38:50;10.00;;;2.87;;
21087;SDS011;10702;51.516;9.944;2023-02-24T07:41:19;14.27;;;2.27;;
21087;SDS011;10702;51.516;9.944;2023-02-24T07:43:48;13.57;;;3.03;;
21087;SDS011;10702;51.516;9.944;2023-02-24T07:46:19;17.03;;;2.63;;
21087;SDS011;10702;51.516;9.944;2023-02-24T07:48:50;18.77;;;3.20;;
21087;SDS011;10702;51.516;9.944;2023-02-24T07:51:19;15.20;;;3.03;;
21087;SDS011;10702;51.516;9.944;2023-02-24T07:53:48;19.83;;;3.30;;
21087;SDS011;10702;51.516;9.944;2023-02-24T07:56:18;20.97;;;2.87;;
21087;SDS011;10702;51.516;9.944;2023-02-24T07:58:46;16.87;;;3.50;;
21087;SDS011;10702;51.516;9.944;2023-02-24T08:01:17;22.03;;;2.70;;
21087;SDS011;10702;51.516;9.944;2023-02-24T08:03:49;16.40;;;2.60;;
21087;SDS011;10702;51.516;9.944;2023-02-24T08:06:17;16.33;;;2.77;;
21087;SDS011;10702;51.516;9.944;2023-02-24T08:08:53;18.47;;;3.10;;
21087;SDS011;10702;51.516;9.944;2023-02-24T08:11:42;13.70;;;2.97;;
21087;SDS011;10702;51.516;9.944;2023-02-24T08:14:11;13.93;;;2.77;;
21087;SDS011;10702;51.516;9.944;2023-02-24T08:16:43;17.87;;;3.13;;
21087;SDS011;10702;51.516;9.944;2023-02-24T08:19:11;15.13;;;2.83;;
21087;SDS011;10702;51.516;9.944;2023-02-24T08:21:39;13.23;;;3.13;;
21087;SDS011;10702;51.516;9.944;2023-02-24T08:24:13;10.43;;;3.00;;
21087;SDS011;10702;51.516;9.944;2023-02-24T08:26:43;11.80;;;3.00;;
21087;SDS011;10702;51.516;9.944;2023-02-24T08:29:11;11.33;;;2.90;;
21087;SDS011;10702;51.516;9.944;2023-02-24T08:31:38;12.63;;;2.90;;
21087;SDS011;10702;51.516;9.944;2023-02-24T08:34:09;12.27;;;3.00;;
21087;SDS011;10702;51.516;9.944;2023-02-24T08:36:41;18.77;;;3.23;;
21087;SDS011;10702;51.516;9.944;2023-02-24T08:39:13;16.43;;;3.30;;
21087;SDS011;10702;51.516;9.944;2023-02-24T08:41:42;10.97;;;4.23;;
21087;SDS011;10702;51.516;9.944;2023-02-24T08:44:16;15.03;;;3.27;;
21087;SDS011;10702;51.516;9.944;2023-02-24T08:46:45;12.37;;;3.10;;
21087;SDS011;10702;51.516;9.944;2023-02-24T08:49:17;12.07;;;3.10;;
21087;SDS011;10702;51.516;9.944;2023-02-24T08:51:45;14.80;;;3.13;;
21087;SDS011;10702;51.516;9.944;2023-02-24T08:54:13;10.67;;;3.07;;
21087;SDS011;10702;51.516;9.944;2023-02-24T08:56:42;8.73;;;3.30;;
21087;SDS011;10702;51.516;9.944;2023-02-24T08:59:10;10.60;;;2.60;;
21087;SDS011;10702;51.516;9.944;2023-02-24T09:01:54;10.33;;;2.70;;
21087;SDS011;10702;51.516;9.944;2023-02-24T09:04:43;9.27;;;2.70;;
21087;SDS011;10702;51.516;9.944;2023-02-24T09:07:12;5.50;;;2.40;;
21087;SDS011;10702;51.516;9.944;2023-02-24T09:09:40;5.57;;;2.13;;
21087;SDS011;10702;51.516;9.944;2023-02-24T09:12:08;8.80;;;2.77;;
21087;SDS011;10702;51.516;9.944;2023-02-24T09:14:47;10.30;;;2.97;;
21087;SDS011;10702;51.516;9.944;2023-02-24T09:17:15;8.73;;;2.50;;
21087;SDS011;10702;51.516;9.944;2023-02-24T09:19:47;10.37;;;2.20;;
21087;SDS011;10702;51.516;9.944;2023-02-24T09:22:32;5.23;;;1.90;;
21087;SDS011;10702;51.516;9.944;2023-02-24T09:25:23;9.03;;;2.43;;
21087;SDS011;10702;51.516;9.944;2023-02-24T09:28:07;6.90;;;2.27;;
21087;SDS011;10702;51.516;9.944;2023-02-24T09:30:35;5.03;;;1.80;;
21087;SDS011;10702;51.516;9.944;2023-02-24T09:33:04;9.93;;;2.23;;
21087;SDS011;10702;51.516;9.944;2023-02-24T09:35:34;5.73;;;2.10;;
21087;SDS011;10702;51.516;9.944;2023-02-24T09:38:02;8.30;;;2.30;;
21087;SDS011;10702;51.516;9.944;2023-02-24T09:40:32;9.63;;;2.23;;
21087;SDS011;10702;51.516;9.944;2023-02-24T09:43:09;9.63;;;1.80;;
21087;SDS011;10702;51.516;9.944;2023-02-24T09:45:48;9.03;;;2.07;;
21087;SDS011;10702;51.516;9.944;2023-02-24T09:48:23;8.37;;;2.03;;
21087;SDS011;10702;51.516;9.944;2023-02-24T09:50:54;6.53;;;2.00;;
21087;SDS011;10702;51.516;9.944;2023-02-24T09:53:31;6.40;;;1.63;;
21087;SDS011;10702;51.516;9.944;2023-02-24T09:56:09;5.47;;;1.50;;
21087;SDS011;10702;51.516;9.944;2023-02-24T09:58:42;5.60;;;1.90;;
21087;SDS011;10702;51.516;9.944;2023-02-24T10:01:19;4.77;;;1.50;;
21087;SDS011;10702;51.516;9.944;2023-02-24T10:03:56;7.27;;;1.90;;
21087;SDS011;10702;51.516;9.944;2023-02-24T10:06:47;6.97;;;1.73;;
21087;SDS011;10702;51.516;9.944;2023-02-24T10:09:17;4.93;;;1.30;;
21087;SDS011;10702;51.516;9.944;2023-02-24T10:11:50;8.83;;;1.90;;
21087;SDS011;10702;51.516;9.944;2023-02-24T10:14:24;5.10;;;1.70;;
21087;SDS011;10702;51.516;9.944;2023-02-24T10:17:09;5.67;;;1.40;;
21087;SDS011;10702;51.516;9.944;2023-02-24T10:19:56;7.93;;;1.80;;
21087;SDS011;10702;51.516;9.944;2023-02-24T10:22:29;6.33;;;1.70;;
21087;SDS011;10702;51.516;9.944;2023-02-24T10:25:01;6.50;;;1.80;;
21087;SDS011;10702;51.516;9.944;2023-02-24T10:27:40;4.83;;;1.50;;
21087;SDS011;10702;51.516;9.944;2023-02-24T10:30:11;9.13;;;1.57;;
21087;SDS011;10702;51.516;9.944;2023-02-24T10:32:47;5.23;;;1.77;;
21087;SDS011;10702;51.516;9.944;2023-02-24T10:35:17;5.60;;;2.03;;
21087;SDS011;10702;51.516;9.944;2023-02-24T10:37:46;8.03;;;2.10;;
21087;SDS011;10702;51.516;9.944;2023-02-24T10:40:14;7.93;;;1.90;;
21087;SDS011;10702;51.516;9.944;2023-02-24T10:43:02;4.30;;;2.03;;
21087;SDS011;10702;51.516;9.944;2023-02-24T10:45:37;5.70;;;2.07;;
21087;SDS011;10702;51.516;9.944;2023-02-24T10:48:15;7.87;;;2.00;;
21087;SDS011;10702;51.516;9.944;2023-02-24T10:51:07;3.67;;;1.60;;
21087;SDS011;10702;51.516;9.944;2023-02-24T10:53:40;6.00;;;2.00;;
21087;SDS011;10702;51.516;9.944;2023-02-24T10:56:12;6.13;;;1.73;;
21087;SDS011;10702;51.516;9.944;2023-02-24T10:59:08;4.73;;;1.70;;
21087;SDS011;10702;51.516;9.944;2023-02-24T11:02:14;5.33;;;1.80;;
21087;SDS011;10702;51.516;9.944;2023-02-24T11:04:51;4.17;;;1.20;;
21087;SDS011;10702;51.516;9.944;2023-02-24T11:07:42;7.03;;;1.70;;
21087;SDS011;10702;51.516;9.944;2023-02-24T11:10:21;6.93;;;1.77;;
21087;SDS011;10702;51.516;9.944;2023-02-24T11:12:58;6.93;;;2.27;;
21087;SDS011;10702;51.516;9.944;2023-02-24T11:15:44;5.67;;;2.20;;
21087;SDS011;10702;51.516;9.944;2023-02-24T11:18:31;8.27;;;2.10;;
21087;SDS011;10702;51.516;9.944;2023-02-24T11:20:59;5.63;;;2.07;;
21087;SDS011;10702;51.516;9.944;2023-02-24T11:23:28;5.67;;;2.20;;
21087;SDS011;10702;51.516;9.944;2023-02-24T11:25:59;10.00;;;2.33;;
21087;SDS011;10702;51.516;9.944;2023-02-24T11:28:37;7.70;;;2.40;;
21087;SDS011;10702;51.516;9.944;2023-02-24T11:31:12;4.90;;;2.17;;
21087;SDS011;10702;51.516;9.944;2023-02-24T11:33:43;6.93;;;2.40;;
21087;SDS011;10702;51.516;9.944;2023-02-24T11:36:14;3.70;;;1.97;;
21087;SDS011;10702;51.516;9.944;2023-02-24T11:38:49;5.03;;;2.30;;
21087;SDS011;10702;51.516;9.944;2023-02-24T11:41:43;5.70;;;3.07;;
21087;SDS011;10702;51.516;9.944;2023-02-24T11:44:14;3.57;;;2.10;;
21087;SDS011;10702;51.516;9.944;2023-02-24T11:46:46;5.97;;;2.37;;
21087;SDS011;10702;51.516;9.944;2023-02-24T11:49:18;6.53;;;2.50;;
21087;SDS011;10702;51.516;9.944;2023-02-24T11:51:47;6.60;;;2.93;;
21087;SDS011;10702;51.516;9.944;2023-02-24T11:54:15;3.93;;;2.50;;
21087;SDS011;10702;51.516;9.944;2023-02-24T11:56:45;7.13;;;2.70;;
21087;SDS011;10702;51.516;9.944;2023-02-24T11:59:14;5.10;;;2.43;;
21087;SDS011;10702;51.516;9.944;2023-02-24T12:01:45;5.77;;;2.67;;
21087;SDS011;10702;51.516;9.944;2023-02-24T12:04:16;6.63;;;2.87;;
21087;SDS011;10702;51.516;9.944;2023-02-24T12:06:47;5.27;;;2.60;;
21087;SDS011;10702;51.516;9.944;2023-02-24T12:09:18;5.80;;;3.30;;
21087;SDS011;10702;51.516;9.944;2023-02-24T12:11:52;5.43;;;2.53;;
21087;SDS011;10702;51.516;9.944;2023-02-24T12:14:24;10.83;;;2.80;;
21087;SDS011;10702;51.516;9.944;2023-02-24T12:16:55;6.10;;;2.80;;
21087;SDS011;10702;51.516;9.944;2023-02-24T12:19:26;4.17;;;2.37;;
21087;SDS011;10702;51.516;9.944;2023-02-24T12:21:56;6.10;;;2.60;;
21087;SDS011;10702;51.516;9.944;2023-02-24T12:24:28;5.93;;;2.70;;
21087;SDS011;10702;51.516;9.944;2023-02-24T12:26:59;5.80;;;2.90;;
21087;SDS011;10702;51.516;9.944;2023-02-24T12:29:36;5.00;;;2.40;;
21087;SDS011;10702;51.516;9.944;2023-02-24T12:32:08;6.57;;;2.40;;
21087;SDS011;10702;51.516;9.944;2023-02-24T12:34:42;3.77;;;2.60;;
21087;SDS011;10702;51.516;9.944;2023-02-24T12:37:33;6.10;;;2.57;;
21087;SDS011;10702;51.516;9.944;2023-02-24T12:40:11;5.43;;;2.40;;
21087;SDS011;10702;51.516;9.944;2023-02-24T12:42:43;6.67;;;2.80;;
21087;SDS011;10702;51.516;9.944;2023-02-24T12:45:14;7.23;;;2.63;;
21087;SDS011;10702;51.516;9.944;2023-02-24T12:47:48;4.07;;;2.73;;
21087;SDS011;10702;51.516;9.944;2023-02-24T12:50:27;4.50;;;2.70;;
21087;SDS011;10702;51.516;9.944;2023-02-24T12:52:59;6.03;;;3.00;;
21087;SDS011;10702;51.516;9.944;2023-02-24T12:55:33;7.13;;;2.70;;
21087;SDS011;10702;51.516;9.944;2023-02-24T12:58:05;6.93;;;3.10;;
21087;SDS011;10702;51.516;9.944;2023-02-24T13:00:36;7.33;;;2.97;;
21087;SDS011;10702;51.516;9.944;2023-02-24T13:03:08;6.60;;;3.03;;
21087;SDS011;10702;51.516;9.944;2023-02-24T13:05:42;6.90;;;2.70;;
21087;SDS011;10702;51.516;9.944;2023-02-24T13:08:16;6.87;;;3.23;;
21087;SDS011;10702;51.516;9.944;2023-02-24T13:10:45;7.00;;;3.30;;
21087;SDS011;10702;51.516;9.944;2023-02-24T13:13:16;6.13;;;3.17;;
21087;SDS011;10702;51.516;9.944;2023-02-24T13:15:49;7.30;;;3.73;;
21087;SDS011;10702;51.516;9.944;2023-02-24T13:18:24;7.20;;;3.40;;
21087;SDS011;10702;51.516;9.944;2023-02-24T13:21:00;8.43;;;3.27;;
21087;SDS011;10702;51.516;9.944;2023-02-24T13:23:28;5.50;;;3.10;;
21087;SDS011;10702;51.516;9.944;2023-02-24T13:25:56;6.43;;;2.93;;
21087;SDS011;10702;51.516;9.944;2023-02-24T13:28:26;5.97;;;3.03;;
21087;SDS011;10702;51.516;9.944;2023-02-24T13:30:57;4.93;;;2.83;;
21087;SDS011;10702;51.516;9.944;2023-02-24T13:33:27;7.07;;;3.40;;
21087;SDS011;10702;51.516;9.944;2023-02-24T13:36:07;5.97;;;3.20;;
21087;SDS011;10702;51.516;9.944;2023-02-24T13:38:35;8.20;;;3.63;;
21087;SDS011;10702;51.516;9.944;2023-02-24T13:41:15;6.17;;;3.40;;
21087;SDS011;10702;51.516;9.944;2023-02-24T13:43:54;5.97;;;3.20;;
21087;SDS011;10702;51.516;9.944;2023-02-24T13:46:23;9.47;;;3.73;;
21087;SDS011;10702;51.516;9.944;2023-02-24T13:48:57;8.37;;;3.83;;
21087;SDS011;10702;51.516;9.944;2023-02-24T13:51:30;5.77;;;3.63;;
21087;SDS011;10702;51.516;9.944;2023-02-24T13:54:06;5.33;;;3.30;;
21087;SDS011;10702;51.516;9.944;2023-02-24T13:56:36;5.47;;;3.30;;
21087;SDS011;10702;51.516;9.944;2023-02-24T13:59:19;6.73;;;3.47;;
21087;SDS011;10702;51.516;9.944;2023-02-24T14:01:50;7.17;;;3.80;;
21087;SDS011;10702;51.516;9.944;2023-02-24T14:04:23;5.80;;;3.47;;
21087;SDS011;10702;51.516;9.944;2023-02-24T14:06:55;5.33;;;3.50;;
21087;SDS011;10702;51.516;9.944;2023-02-24T14:09:23;5.83;;;3.30;;
21087;SDS011;10702;51.516;9.944;2023-02-24T14:11:57;6.07;;;3.40;;
21087;SDS011;10702;51.516;9.944;2023-02-24T14:14:27;6.30;;;3.87;;
21087;SDS011;10702;51.516;9.944;2023-02-24T14:16:54;7.20;;;3.50;;
21087;SDS011;10702;51.516;9.944;2023-02-24T14:19:22;5.83;;;3.33;;
21087;SDS011;10702;51.516;9.944;2023-02-24T14:21:51;6.77;;;3.70;;
21087;SDS011;10702;51.516;9.944;2023-02-24T14:24:19;6.43;;;3.97;;
21087;SDS011;10702;51.516;9.944;2023-02-24T14:26:48;6.63;;;3.63;;
21087;SDS011;10702;51.516;9.944;2023-02-24T14:29:16;6.57;;;3.70;;
21087;SDS011;10702;51.516;9.944;2023-02-24T14:31:47;5.73;;;3.70;;
21087;SDS011;10702;51.516;9.944;2023-02-24T14:34:16;6.83;;;4.23;;
21087;SDS011;10702;51.516;9.944;2023-02-24T14:36:44;6.40;;;3.50;;
21087;SDS011;10702;51.516;9.944;2023-02-24T14:39:13;6.07;;;3.40;;
21087;SDS011;10702;51.516;9.944;2023-02-24T14:41:42;5.67;;;3.70;;
21087;SDS011;10702;51.516;9.944;2023-02-24T14:44:22;9.07;;;3.90;;
21087;SDS011;10702;51.516;9.944;2023-02-24T14:46:51;5.27;;;3.07;;
21087;SDS011;10702;51.516;9.944;2023-02-24T14:49:21;6.93;;;3.57;;
21087;SDS011;10702;51.516;9.944;2023-02-24T14:51:50;6.17;;;3.60;;
21087;SDS011;10702;51.516;9.944;2023-02-24T14:54:22;6.20;;;3.83;;
21087;SDS011;10702;51.516;9.944;2023-02-24T14:56:50;8.57;;;4.00;;
21087;SDS011;10702;51.516;9.944;2023-02-24T14:59:19;3.77;;;2.93;;
21087;SDS011;10702;51.516;9.944;2023-02-24T15:01:49;6.40;;;3.33;;
21087;SDS011;10702;51.516;9.944;2023-02-24T15:04:23;5.07;;;3.30;;
21087;SDS011;10702;51.516;9.944;2023-02-24T15:06:51;6.57;;;3.80;;
21087;SDS011;10702;51.516;9.944;2023-02-24T15:09:19;7.13;;;3.60;;
21087;SDS011;10702;51.516;9.944;2023-02-24T15:11:48;4.53;;;3.33;;
21087;SDS011;10702;51.516;9.944;2023-02-24T15:14:18;7.43;;;3.90;;